Country
Station

 

Weather  for  Chiang Mai  -  Thailand    Thailand

  
24 °C (75 °F)
    
 
 

Current METAR for Chiang Mai is :

VTCC 192100Z 00000KT 9999 FEW035 24/20 Q1010 NOSIG

 

This is a report for Chiang Mai - Thailand.
 
The report was made 30 minutes ago, at 21:00 UTC .
The wind was calm.
 
The temperature was 24 °C (75 °F), with a dew-point at 20 °C (68 °F).
The temperature felt like 24 °C (76 °F).
 
The atmospheric pressure was 1010 hPa (29.83 inHg).
The relative humidity was 78.4%.
 
There were a few clouds at a height of 1067 meters (3500 feet).
 
The overall visibility was greater than 10 kilometers (6.2 miles).
 

 
 
 
 

Country :   A   B   C   D   E   F   G   H   I   J   K   L   M   N   O   P   Q   R   S   T   U   V   W   Y   Z

 

Site Info  |  Disclaimer  |  Credits  |  Privacy
Contact us  |  Add to favorites
© 2013-2018 METARs - All rights reserved